Time;durP1;ratioP1;P1;durP2;ratioP2;P2;SDS_P1;SDS_P2;PMS_P1;PMS_P2;Temp;Humidity;BMP_temperature;BMP_pressure;BME280_temperature;BME280_humidity;BME280_pressure;Samples;Min_cycle;Max_cycle;Signal;HPM_P1;HPM_P2
2022/12/27 00:01:45;;;;;;;224.73;150.55;;;9.20;99.90;;;;;;5015348;28;20104;-63
2022/12/27 00:04:11;;;;;;;213.15;143.00;;;9.40;99.90;;;;;;5015300;28;20109;-60
2022/12/27 00:06:37;;;;;;;236.40;155.38;;;9.40;99.90;;;;;;5015127;28;20053;-63
2022/12/27 00:09:03;;;;;;;203.27;137.00;;;9.40;99.90;;;;;;5014862;28;20030;-62
2022/12/27 00:11:29;;;;;;;148.65;100.13;;;9.30;99.90;;;;;;5014897;28;20519;-64
2022/12/27 00:14:01;;;;;;;119.63;81.55;;;9.40;99.90;;;;;;5015032;28;20037;-66
2022/12/27 00:16:27;;;;;;;114.68;81.50;;;9.50;99.90;;;;;;5014979;28;20507;-64
2022/12/27 00:18:53;;;;;;;104.82;71.55;;;9.40;99.90;;;;;;5014993;28;20105;-62
2022/12/27 00:21:20;;;;;;;95.53;66.35;;;9.40;99.90;;;;;;5014885;28;20097;-67
2022/12/27 00:23:52;;;;;;;112.55;76.82;;;9.50;99.90;;;;;;5014571;28;20116;-66
2022/12/27 00:26:25;;;;;;;100.78;67.57;;;9.60;99.90;;;;;;5014609;28;20026;-63
2022/12/27 00:28:52;;;;;;;105.15;70.53;;;9.60;99.90;;;;;;5014740;28;20119;-63
2022/12/27 00:31:20;;;;;;;108.57;74.68;;;9.60;99.90;;;;;;5014712;28;20109;-67
2022/12/27 00:33:47;;;;;;;96.53;67.30;;;9.60;99.90;;;;;;5014863;28;20025;-65
2022/12/27 00:36:19;;;;;;;77.15;55.72;;;9.70;99.90;;;;;;5014472;28;20037;-62
2022/12/27 00:38:45;;;;;;;71.25;50.53;;;9.80;99.90;;;;;;5014657;28;20022;-62
2022/12/27 00:41:13;;;;;;;61.17;45.35;;;9.80;99.90;;;;;;5014529;28;20036;-63
2022/12/27 00:43:39;;;;;;;57.90;41.88;;;9.80;99.90;;;;;;5014388;28;20046;-62
2022/12/27 00:46:06;;;;;;;61.63;44.25;;;9.90;99.90;;;;;;5014382;28;20057;-62
2022/12/27 00:48:32;;;;;;;51.90;40.35;;;9.90;99.90;;;;;;5014399;28;20524;-65
2022/12/27 00:51:07;;;;;;;48.85;37.67;;;9.90;99.90;;;;;;5014303;28;20102;-66
2022/12/27 00:53:35;;;;;;;49.67;36.55;;;9.90;99.90;;;;;;5014183;28;20072;-66
2022/12/27 00:56:09;;;;;;;47.72;34.83;;;10.00;99.90;;;;;;5013529;28;20021;-62
2022/12/27 00:58:36;;;;;;;54.65;39.92;;;10.00;99.90;;;;;;5014237;28;20080;-64
2022/12/27 01:01:16;;;;;;;39.72;32.10;;;10.10;99.90;;;;;;5014273;28;20026;-64
2022/12/27 01:03:42;;;;;;;41.80;32.17;;;10.10;99.90;;;;;;5014083;28;20049;-65
2022/12/27 01:06:11;;;;;;;42.38;32.75;;;10.10;99.90;;;;;;5013773;28;20029;-66
2022/12/27 01:08:37;;;;;;;41.58;30.95;;;10.10;99.90;;;;;;5014175;28;20125;-62
2022/12/27 01:11:03;;;;;;;56.17;41.30;;;10.10;99.90;;;;;;5013751;28;20048;-65
2022/12/27 01:13:29;;;;;;;55.50;39.60;;;10.10;99.90;;;;;;5013982;28;20029;-63
2022/12/27 01:15:55;;;;;;;45.22;34.80;;;10.00;99.90;;;;;;5012651;28;20030;-63
2022/12/27 01:18:21;;;;;;;47.53;34.63;;;10.00;99.90;;;;;;5013869;28;20552;-62
2022/12/27 01:20:47;;;;;;;40.55;31.40;;;10.10;99.90;;;;;;5013666;28;20040;-68
2022/12/27 01:23:12;;;;;;;41.85;31.48;;;10.10;99.90;;;;;;5013861;28;20040;-61
2022/12/27 01:25:38;;;;;;;32.53;25.73;;;10.10;99.90;;;;;;5013555;28;20480;-63
2022/12/27 01:28:04;;;;;;;57.00;41.03;;;10.20;99.90;;;;;;5013837;28;20083;-63
2022/12/27 01:30:29;;;;;;;97.05;66.20;;;10.20;99.90;;;;;;5013682;28;20368;-64
2022/12/27 01:32:55;;;;;;;102.72;69.95;;;10.10;99.90;;;;;;5013965;28;20105;-66
2022/12/27 01:35:21;;;;;;;85.05;62.35;;;10.00;99.90;;;;;;5013284;28;20384;-62
2022/12/27 01:37:47;;;;;;;106.57;74.18;;;10.00;99.90;;;;;;5013949;28;20021;-64
2022/12/27 01:40:14;;;;;;;81.15;57.95;;;10.00;99.90;;;;;;5013560;28;20029;-65
2022/12/27 01:42:51;;;;;;;71.07;52.70;;;10.00;99.90;;;;;;5013604;28;20116;-65
2022/12/27 01:45:26;;;;;;;61.20;45.78;;;10.10;99.90;;;;;;5013405;28;20084;-65
2022/12/27 01:48:12;;;;;;;55.92;41.75;;;10.20;99.90;;;;;;5013502;28;20037;-62
2022/12/27 01:50:48;;;;;;;51.13;38.05;;;10.20;99.90;;;;;;5013324;28;20025;-60
2022/12/27 01:53:28;;;;;;;45.40;35.13;;;10.20;99.90;;;;;;5013402;28;20388;-62
2022/12/27 01:56:06;;;;;;;46.97;34.33;;;10.30;99.90;;;;;;5013470;28;20037;-63
2022/12/27 01:58:50;;;;;;;39.05;29.52;;;10.30;99.90;;;;;;5013732;28;20038;-68
2022/12/27 02:01:20;;;;;;;41.50;30.25;;;10.30;99.90;;;;;;5013703;28;20368;-67
2022/12/27 02:03:50;;;;;;;36.65;27.95;;;10.30;99.90;;;;;;5013648;28;20072;-62
2022/12/27 02:06:18;;;;;;;35.78;27.80;;;10.30;99.90;;;;;;5013245;28;20026;-63
2022/12/27 02:08:52;;;;;;;34.90;26.63;;;10.40;99.90;;;;;;5016451;28;20183;-66
2022/12/27 02:14:13;;;;;;;;;;;10.40;99.90;;;;;;5017963;28;20037;-66
2022/12/27 02:16:38;;;;;;;35.58;26.92;;;10.40;99.90;;;;;;5017220;28;20271;-64
2022/12/27 02:19:31;;;;;;;33.95;25.27;;;10.30;99.90;;;;;;5017056;28;20030;-64
2022/12/27 02:24:01;;;;;;;30.30;22.60;;;10.30;99.90;;;;;;5017204;28;20022;-65
2022/12/27 02:25:49;;;;;;;28.60;22.23;;;10.40;99.90;;;;;;5016775;28;20030;-65
2022/12/27 02:28:24;;;;;;;40.42;29.98;;;10.40;99.90;;;;;;5014800;28;20061;-64
2022/12/27 02:30:57;;;;;;;35.15;27.33;;;10.40;99.90;;;;;;5017029;28;20080;-65
2022/12/27 02:33:28;;;;;;;31.15;23.90;;;10.30;99.90;;;;;;5017222;28;20124;-64
2022/12/27 02:36:02;;;;;;;28.23;22.92;;;10.30;99.90;;;;;;5016868;28;20515;-61
2022/12/27 02:38:35;;;;;;;28.05;24.30;;;10.30;99.90;;;;;;5016801;28;20096;-61
2022/12/27 02:55:17;;;;;;;53.53;38.33;;;10.20;99.90;;;;;;5016437;28;20044;-67
2022/12/27 02:58:22;;;;;;;60.80;44.63;;;10.20;99.90;;;;;;5016556;28;20021;-62
2022/12/27 03:04:08;;;;;;;80.88;57.28;;;10.00;99.90;;;;;;5016299;28;19960;-62
2022/12/27 03:06:58;;;;;;;64.43;46.67;;;10.00;99.90;;;;;;5016219;28;20092;-61
2022/12/27 03:16:03;;;;;;;85.78;60.42;;;9.90;99.90;;;;;;5016130;28;20396;-63
2022/12/27 03:18:41;;;;;;;86.32;60.65;;;9.90;99.90;;;;;;5015547;28;20443;-61
2022/12/27 03:26:45;;;;;;;68.55;52.38;;;9.80;99.90;;;;;;5015716;28;20110;-66
2022/12/27 03:35:07;;;;;;;105.53;75.05;;;9.80;99.90;;;;;;5016052;28;20021;-64
2022/12/27 03:43:30;;;;;;;71.97;52.38;;;9.60;99.90;;;;;;5015850;28;20048;-61
2022/12/27 03:49:10;;;;;;;122.63;86.05;;;9.60;99.90;;;;;;5015472;28;20400;-60
2022/12/27 03:51:58;;;;;;;98.60;72.30;;;9.50;99.90;;;;;;5015626;28;20022;-62
2022/12/27 03:54:29;;;;;;;95.68;67.43;;;9.50;99.90;;;;;;5012298;28;20038;-64
2022/12/27 03:57:01;;;;;;;92.38;64.53;;;9.50;99.90;;;;;;5015445;28;20030;-66
2022/12/27 03:59:27;;;;;;;77.38;57.83;;;9.60;99.90;;;;;;5015267;28;20014;-63
2022/12/27 04:01:53;;;;;;;78.78;57.00;;;9.70;99.90;;;;;;5015389;28;20491;-63
2022/12/27 04:04:19;;;;;;;77.47;54.55;;;9.70;99.90;;;;;;5015273;28;20026;-65
2022/12/27 04:06:45;;;;;;;78.85;57.72;;;9.70;99.90;;;;;;5015073;28;20033;-65
2022/12/27 04:36:33;;;;;;;;;;;9.70;99.90;;;;;;5015203;28;20053;-62
2022/12/27 04:38:59;;;;;;;52.00;38.20;;;9.80;99.90;;;;;;5014646;28;20387;-63
2022/12/27 04:55:18;;;;;;;39.50;29.60;;;10.10;99.90;;;;;;5014275;28;20168;-64
2022/12/27 04:57:44;;;;;;;32.08;25.20;;;10.20;99.90;;;;;;5014390;28;20044;-63
2022/12/27 05:02:56;;;;;;;33.80;25.90;;;10.20;99.90;;;;;;5014526;28;20495;-62
2022/12/27 05:05:23;;;;;;;35.88;27.15;;;10.30;99.90;;;;;;5014078;28;20034;-64
2022/12/27 05:16:01;;;;;;;25.23;19.98;;;10.30;99.90;;;;;;5014062;28;19912;-63
2022/12/27 05:18:27;;;;;;;27.70;21.17;;;10.40;99.90;;;;;;5014118;28;20030;-63
2022/12/27 05:20:53;;;;;;;28.92;20.95;;;10.40;99.90;;;;;;5013926;28;20030;-66
2022/12/27 05:26:03;;;;;;;23.00;18.73;;;10.50;99.90;;;;;;5013872;28;20025;-64
2022/12/27 05:28:29;;;;;;;31.23;23.45;;;10.50;99.90;;;;;;5013682;28;20022;-61
2022/12/27 05:31:01;;;;;;;23.77;19.40;;;10.50;99.90;;;;;;5013667;28;20071;-65
2022/12/27 05:33:29;;;;;;;29.38;21.67;;;10.50;99.90;;;;;;5013965;28;20052;-63
2022/12/27 05:35:57;;;;;;;33.80;25.98;;;10.50;99.90;;;;;;5013727;28;20105;-64
2022/12/27 05:38:23;;;;;;;38.63;29.58;;;10.50;99.90;;;;;;5013514;28;20029;-67
2022/12/27 05:40:48;;;;;;;26.23;21.83;;;10.50;99.90;;;;;;5013587;28;20025;-64
2022/12/27 05:43:14;;;;;;;29.70;23.00;;;10.50;99.90;;;;;;5012983;28;20032;-67
2022/12/27 05:45:40;;;;;;;32.50;23.98;;;10.50;99.90;;;;;;5013392;28;20029;-61
2022/12/27 05:48:05;;;;;;;32.33;24.15;;;10.50;99.90;;;;;;5013642;28;20053;-63
2022/12/27 05:50:31;;;;;;;39.13;28.98;;;10.50;99.90;;;;;;5013542;28;20049;-66
2022/12/27 05:52:57;;;;;;;46.75;34.60;;;10.50;99.90;;;;;;5013391;28;20026;-64
2022/12/27 05:55:22;;;;;;;34.05;26.67;;;10.60;99.90;;;;;;5013404;28;20385;-65
2022/12/27 05:57:48;;;;;;;30.75;23.88;;;10.60;99.90;;;;;;5013305;28;20072;-63
2022/12/27 06:00:14;;;;;;;28.67;21.88;;;10.60;99.90;;;;;;5013294;28;20412;-63
2022/12/27 06:02:41;;;;;;;28.90;21.70;;;10.60;99.90;;;;;;5012314;28;20032;-63
2022/12/27 06:05:07;;;;;;;25.33;19.67;;;10.60;99.90;;;;;;5013403;28;20369;-62
2022/12/27 06:07:35;;;;;;;25.48;19.15;;;10.60;99.90;;;;;;5012110;28;20025;-64
2022/12/27 06:10:02;;;;;;;23.70;18.83;;;10.60;99.90;;;;;;5012170;28;20112;-65
2022/12/27 06:12:28;;;;;;;21.73;17.45;;;10.70;99.90;;;;;;5013080;28;20076;-62
2022/12/27 06:14:53;;;;;;;20.35;16.77;;;10.70;99.90;;;;;;5013380;28;20026;-63
2022/12/27 06:17:19;;;;;;;31.20;22.77;;;10.70;99.90;;;;;;5013055;28;20018;-63
2022/12/27 06:19:45;;;;;;;42.28;29.30;;;10.70;99.90;;;;;;5013323;28;20018;-64
2022/12/27 06:22:10;;;;;;;39.20;26.13;;;10.60;99.90;;;;;;5011616;28;20042;-63
2022/12/27 06:24:36;;;;;;;36.00;25.00;;;10.60;99.90;;;;;;5012132;28;20029;-64
2022/12/27 06:27:02;;;;;;;42.20;27.25;;;10.60;99.90;;;;;;5012213;28;20057;-65
2022/12/27 06:29:27;;;;;;;42.33;29.65;;;10.70;99.90;;;;;;5002078;28;20105;-65
2022/12/27 06:31:53;;;;;;;41.92;28.55;;;10.70;99.90;;;;;;5007262;28;20088;-61
2022/12/27 06:34:19;;;;;;;46.80;33.08;;;10.70;99.90;;;;;;5013090;28;20026;-67
2022/12/27 06:36:49;;;;;;;44.45;30.25;;;10.70;99.90;;;;;;5013072;28;20061;-62
2022/12/27 06:39:16;;;;;;;41.03;28.88;;;10.70;99.90;;;;;;5003695;28;20538;-63
2022/12/27 06:41:41;;;;;;;49.97;36.35;;;10.80;99.90;;;;;;4992606;28;20026;-64
2022/12/27 06:44:07;;;;;;;50.00;36.13;;;10.80;99.90;;;;;;4993033;28;20031;-63
2022/12/27 06:46:33;;;;;;;36.45;28.42;;;10.80;99.90;;;;;;4993411;28;20030;-63
2022/12/27 06:48:58;;;;;;;36.83;28.63;;;10.80;99.90;;;;;;4992998;28;20389;-61
2022/12/27 06:51:24;;;;;;;33.20;26.63;;;10.80;99.90;;;;;;5003245;28;20084;-63
2022/12/27 06:53:50;;;;;;;31.05;23.45;;;10.90;99.90;;;;;;5006730;28;20484;-62
2022/12/27 06:56:19;;;;;;;32.00;25.63;;;11.00;99.90;;;;;;5015860;28;20022;-65
2022/12/27 06:58:46;;;;;;;27.70;20.67;;;11.00;99.90;;;;;;5006451;28;20058;-65
2022/12/27 07:01:14;;;;;;;18.15;14.55;;;11.00;99.90;;;;;;5010331;28;20103;-66
2022/12/27 07:03:40;;;;;;;17.10;13.55;;;11.00;99.90;;;;;;5012119;28;20389;-64
2022/12/27 07:06:10;;;;;;;16.13;14.02;;;11.10;99.90;;;;;;5004160;28;20833;-61
2022/12/27 07:08:36;;;;;;;14.27;12.57;;;11.20;99.90;;;;;;5005548;28;20492;-62
2022/12/27 07:11:08;;;;;;;23.98;18.25;;;11.30;99.90;;;;;;5004143;28;20046;-62
2022/12/27 07:13:36;;;;;;;25.70;19.40;;;11.40;99.90;;;;;;5005561;28;20018;-63
2022/12/27 07:16:06;;;;;;;27.90;20.50;;;11.40;99.90;;;;;;5004791;28;20113;-67
2022/12/27 07:18:32;;;;;;;24.02;18.92;;;11.30;99.90;;;;;;5005362;28;20396;-63
2022/12/27 07:20:58;;;;;;;20.92;16.77;;;11.20;99.90;;;;;;5000183;28;20018;-62
2022/12/27 07:23:25;;;;;;;20.50;16.63;;;11.30;99.90;;;;;;5005273;28;20138;-65
2022/12/27 07:25:51;;;;;;;23.50;18.58;;;11.40;99.90;;;;;;5004399;28;20085;-61
2022/12/27 07:28:16;;;;;;;22.33;17.30;;;11.50;99.90;;;;;;5006134;28;20484;-65
2022/12/27 07:30:42;;;;;;;33.22;26.10;;;11.60;99.90;;;;;;5006533;28;20026;-66
2022/12/27 07:33:08;;;;;;;23.60;18.98;;;11.60;99.90;;;;;;5002159;28;20384;-65
2022/12/27 07:35:34;;;;;;;33.53;24.83;;;11.60;99.90;;;;;;5004603;28;20201;-64
2022/12/27 07:37:59;;;;;;;30.48;23.20;;;11.60;99.90;;;;;;4999371;28;20037;-61
2022/12/27 07:40:25;;;;;;;38.15;29.10;;;11.60;99.90;;;;;;4995646;28;20425;-66
2022/12/27 07:42:51;;;;;;;32.78;26.25;;;11.60;99.90;;;;;;5006029;28;20057;-64
2022/12/27 07:45:17;;;;;;;32.55;26.08;;;11.60;99.90;;;;;;5007715;28;20030;-65
2022/12/27 07:47:42;;;;;;;25.27;20.13;;;11.70;99.90;;;;;;5004413;28;20033;-64
2022/12/27 07:50:09;;;;;;;20.95;15.52;;;11.80;99.90;;;;;;5010518;28;20081;-64
2022/12/27 07:52:34;;;;;;;16.85;14.02;;;11.90;99.90;;;;;;5001347;28;20062;-68
2022/12/27 07:55:00;;;;;;;19.60;15.32;;;12.00;99.90;;;;;;4998355;28;20385;-65
2022/12/27 07:57:28;;;;;;;18.55;15.38;;;12.10;99.90;;;;;;5003924;28;20134;-68
2022/12/27 07:59:54;;;;;;;21.02;18.20;;;12.10;99.90;;;;;;4992393;28;20023;-65
2022/12/27 08:02:20;;;;;;;29.70;23.77;;;12.20;99.90;;;;;;4994674;28;20026;-65
2022/12/27 08:04:46;;;;;;;35.63;28.00;;;12.20;99.90;;;;;;4992310;28;20026;-65
2022/12/27 08:07:14;;;;;;;19.38;16.95;;;12.10;99.90;;;;;;4991532;28;20640;-64
2022/12/27 08:09:42;;;;;;;12.80;10.95;;;12.10;99.90;;;;;;5006048;28;20104;-66
2022/12/27 08:12:08;;;;;;;20.05;15.55;;;12.20;99.90;;;;;;5010102;28;20476;-65
2022/12/27 08:14:34;;;;;;;20.65;17.02;;;12.30;99.90;;;;;;5002515;28;20038;-64
2022/12/27 08:17:19;;;;;;;29.27;23.38;;;12.30;99.90;;;;;;4994443;28;20080;-67
2022/12/27 08:19:50;;;;;;;30.00;23.98;;;12.30;99.90;;;;;;4998368;28;20025;-67
2022/12/27 08:22:16;;;;;;;34.92;26.80;;;12.30;99.90;;;;;;5005671;28;20057;-64
2022/12/27 08:24:42;;;;;;;43.38;32.42;;;12.20;99.90;;;;;;5000285;28;20496;-64
2022/12/27 08:27:09;;;;;;;56.38;40.72;;;12.30;99.90;;;;;;5008915;28;20368;-66
2022/12/27 08:29:35;;;;;;;58.88;43.97;;;12.10;99.90;;;;;;5009295;28;20131;-66
2022/12/27 08:32:01;;;;;;;50.70;39.53;;;12.00;99.90;;;;;;5011510;28;20050;-67
2022/12/27 08:34:26;;;;;;;61.65;46.72;;;12.00;99.90;;;;;;5009925;28;20503;-68
2022/12/27 08:36:52;;;;;;;67.55;48.67;;;12.10;99.90;;;;;;5008919;28;20026;-65
2022/12/27 08:39:19;;;;;;;72.38;49.95;;;12.20;99.90;;;;;;5008443;28;20029;-64
2022/12/27 08:41:45;;;;;;;101.90;71.97;;;12.20;99.90;;;;;;5010240;28;20022;-68
2022/12/27 08:44:11;;;;;;;96.65;67.10;;;12.00;99.90;;;;;;5011147;28;20219;-68
2022/12/27 08:46:37;;;;;;;78.45;56.88;;;11.80;99.90;;;;;;4997273;28;20082;-65
2022/12/27 08:49:04;;;;;;;75.25;53.20;;;11.90;99.90;;;;;;5010492;28;20093;-65
2022/12/27 08:51:29;;;;;;;78.50;54.45;;;11.90;99.90;;;;;;5000617;28;20034;-66
2022/12/27 08:53:56;;;;;;;61.50;48.00;;;12.00;99.90;;;;;;5001618;28;20025;-63
2022/12/27 08:56:22;;;;;;;56.88;45.75;;;12.00;99.90;;;;;;5005359;28;20364;-65
2022/12/27 08:58:49;;;;;;;55.83;44.65;;;12.00;99.90;;;;;;5007842;28;20105;-66
2022/12/27 09:01:15;;;;;;;48.47;38.00;;;11.90;99.90;;;;;;5011835;28;20042;-66
2022/12/27 09:03:41;;;;;;;46.63;37.22;;;11.90;99.90;;;;;;5012998;28;20018;-65
2022/12/27 09:06:20;;;;;;;47.70;36.97;;;12.00;99.90;;;;;;5011822;28;20056;-64
2022/12/27 09:08:48;;;;;;;38.78;32.33;;;12.00;99.90;;;;;;5008185;28;20072;-64
2022/12/27 09:11:23;;;;;;;42.22;32.78;;;12.00;99.90;;;;;;5007704;28;20046;-63
2022/12/27 09:13:49;;;;;;;39.67;32.65;;;12.10;99.90;;;;;;5003024;28;20042;-63
2022/12/27 09:16:18;;;;;;;40.30;32.85;;;12.20;99.90;;;;;;4997787;28;20326;-65
2022/12/27 09:18:47;;;;;;;40.67;33.88;;;12.20;99.90;;;;;;4997626;28;20026;-65
2022/12/27 09:21:13;;;;;;;42.33;32.78;;;12.30;99.90;;;;;;5007500;28;20034;-65
2022/12/27 09:23:40;;;;;;;46.03;37.22;;;12.30;99.90;;;;;;5011009;28;20499;-63
2022/12/27 09:26:11;;;;;;;41.92;31.65;;;12.40;99.90;;;;;;5011638;28;20022;-67
2022/12/27 09:31:59;;;;;;;84.30;68.43;;;12.70;99.90;;;;;;5006622;28;20033;-65
2022/12/27 09:34:25;;;;;;;78.93;61.10;;;12.60;99.90;;;;;;5007415;28;20034;-65
2022/12/27 09:36:52;;;;;;;57.20;48.50;;;12.60;99.90;;;;;;5006720;28;20045;-63
2022/12/27 09:39:18;;;;;;;59.30;47.17;;;12.70;99.90;;;;;;5007662;28;20381;-63
2022/12/27 09:42:00;;;;;;;56.15;46.15;;;12.80;99.90;;;;;;5010188;28;20037;-65
2022/12/27 09:45:10;;;;;;;47.17;39.88;;;12.90;99.90;;;;;;4998299;28;20054;-63
2022/12/27 09:48:26;;;;;;;52.03;42.20;;;13.00;99.90;;;;;;5014345;28;20044;-61
2022/12/27 09:50:56;;;;;;;46.45;38.42;;;13.00;99.90;;;;;;4989352;28;20034;-63
2022/12/27 09:54:10;;;;;;;41.03;36.10;;;13.10;99.90;;;;;;4995442;28;20032;-68
2022/12/27 09:56:36;;;;;;;44.40;36.38;;;13.10;99.90;;;;;;5001966;28;20507;-67
2022/12/27 09:59:17;;;;;;;41.67;34.50;;;13.30;99.90;;;;;;4999286;28;20018;-64
2022/12/27 10:01:43;;;;;;;37.95;33.33;;;13.30;99.90;;;;;;5029681;28;20034;-63
2022/12/27 10:04:13;;;;;;;36.25;30.48;;;13.30;99.90;;;;;;4998875;28;20427;-68
2022/12/27 10:06:47;;;;;;;41.28;31.77;;;13.30;99.90;;;;;;4998421;28;20030;-66
2022/12/27 10:09:39;;;;;;;34.72;30.40;;;13.40;99.90;;;;;;5006531;28;20033;-66
2022/12/27 10:12:25;;;;;;;34.08;29.02;;;13.30;99.90;;;;;;5011580;28;20046;-65
2022/12/27 10:15:26;;;;;;;29.38;26.23;;;13.30;99.90;;;;;;5008603;28;20033;-72
2022/12/27 10:18:05;;;;;;;30.73;25.58;;;13.30;99.90;;;;;;5001042;28;20076;-72
2022/12/27 10:20:46;;;;;;;29.23;25.15;;;13.40;99.90;;;;;;4999150;28;20089;-65
2022/12/27 10:23:18;;;;;;;31.08;25.40;;;13.50;99.90;;;;;;5001037;28;20030;-62
2022/12/27 10:25:45;;;;;;;27.48;23.55;;;13.50;99.90;;;;;;5003838;28;20029;-67
2022/12/27 10:28:38;;;;;;;28.58;24.20;;;13.50;99.90;;;;;;5000982;28;20022;-65
2022/12/27 10:31:05;;;;;;;28.90;24.47;;;13.50;99.90;;;;;;5002195;28;20129;-67
2022/12/27 10:33:33;;;;;;;40.10;30.73;;;13.60;99.90;;;;;;5001867;28;20823;-71
2022/12/27 10:36:06;;;;;;;37.22;31.50;;;13.70;99.90;;;;;;5003628;28;20030;-72
2022/12/27 10:38:33;;;;;;;31.83;27.33;;;13.70;99.90;;;;;;5011167;28;20064;-62
2022/12/27 10:41:33;;;;;;;37.80;31.55;;;13.70;99.90;;;;;;5002700;28;20030;-63
2022/12/27 10:43:58;;;;;;;36.33;31.25;;;13.70;99.90;;;;;;4999363;28;20033;-63
2022/12/27 10:46:26;;;;;;;32.35;27.52;;;13.70;99.90;;;;;;5000664;28;20404;-64
2022/12/27 10:49:06;;;;;;;40.28;33.35;;;13.70;99.90;;;;;;5003058;28;20364;-64
2022/12/27 10:51:39;;;;;;;39.08;34.70;;;13.70;99.90;;;;;;5005800;28;20014;-63
2022/12/27 10:54:29;;;;;;;40.95;35.05;;;13.60;99.90;;;;;;5006426;28;20034;-64
2022/12/27 10:57:14;;;;;;;39.47;33.53;;;13.50;99.90;;;;;;4999693;28;20728;-65
2022/12/27 10:59:39;;;;;;;39.17;33.33;;;13.50;99.90;;;;;;5002071;28;20048;-65
2022/12/27 11:02:05;;;;;;;42.92;35.65;;;13.50;99.90;;;;;;5009728;28;20472;-63
2022/12/27 11:04:31;;;;;;;45.72;37.38;;;13.50;99.90;;;;;;5007830;28;20080;-64
2022/12/27 11:07:03;;;;;;;40.55;35.83;;;13.50;99.90;;;;;;5001456;28;20146;-65
2022/12/27 11:09:36;;;;;;;34.42;30.73;;;13.50;99.90;;;;;;5003517;28;20023;-67
2022/12/27 11:12:27;;;;;;;37.13;33.13;;;13.60;99.90;;;;;;5025721;28;20057;-64
2022/12/27 11:15:09;;;;;;;38.42;33.72;;;13.60;99.90;;;;;;5003322;28;20026;-66
2022/12/27 11:17:47;;;;;;;40.15;35.78;;;13.60;99.90;;;;;;4995238;28;20030;-69
2022/12/27 11:20:22;;;;;;;44.33;39.63;;;13.60;99.90;;;;;;5009008;28;20041;-63
2022/12/27 11:22:51;;;;;;;35.13;31.45;;;13.50;99.90;;;;;;5007417;28;20104;-63
2022/12/27 11:25:17;;;;;;;36.13;32.03;;;13.40;99.90;;;;;;5012029;28;20506;-60
2022/12/27 11:27:53;;;;;;;38.72;33.53;;;13.50;99.90;;;;;;5007701;28;20036;-66
2022/12/27 11:30:37;;;;;;;35.60;31.90;;;13.60;99.90;;;;;;5015382;28;20032;-68
2022/12/27 11:33:22;;;;;;;35.25;29.98;;;13.50;99.90;;;;;;5026719;28;20079;-71
2022/12/27 11:35:54;;;;;;;32.40;28.90;;;13.50;99.90;;;;;;5004326;28;20033;-66
2022/12/27 11:38:48;;;;;;;30.15;26.98;;;13.50;99.90;;;;;;5005600;28;20091;-66
2022/12/27 11:41:46;;;;;;;24.60;21.95;;;13.50;99.90;;;;;;4999760;28;20503;-68
2022/12/27 11:44:33;;;;;;;24.38;21.88;;;13.50;99.90;;;;;;5003284;28;20120;-66
2022/12/27 11:47:05;;;;;;;27.83;24.83;;;13.40;99.90;;;;;;5002003;28;20595;-65
2022/12/27 11:49:48;;;;;;;30.58;25.00;;;13.50;99.90;;;;;;5024075;28;20030;-66
2022/12/27 11:52:52;;;;;;;31.77;27.80;;;13.60;99.90;;;;;;5002973;28;20121;-63
2022/12/27 11:55:38;;;;;;;23.02;20.52;;;13.50;99.90;;;;;;5011991;28;20041;-65
2022/12/27 11:58:34;;;;;;;20.75;18.52;;;13.40;99.90;;;;;;5008206;28;20522;-65
2022/12/27 12:01:16;;;;;;;17.90;16.13;;;13.40;99.90;;;;;;5013152;28;20049;-64
2022/12/27 12:04:24;;;;;;;17.80;16.00;;;13.40;99.90;;;;;;5008118;28;20100;-69
2022/12/27 12:07:19;;;;;;;15.00;13.38;;;13.50;99.90;;;;;;5009335;28;20029;-65
2022/12/27 12:10:05;;;;;;;15.18;12.50;;;13.50;99.90;;;;;;5009976;28;20121;-64
2022/12/27 12:12:47;;;;;;;12.50;11.10;;;13.40;99.90;;;;;;5000693;28;20034;-67
2022/12/27 12:15:37;;;;;;;13.18;11.77;;;13.40;99.90;;;;;;5002825;28;20034;-64
2022/12/27 12:18:34;;;;;;;11.82;10.52;;;13.40;99.90;;;;;;5007130;28;20556;-67
2022/12/27 12:21:54;;;;;;;11.15;9.95;;;13.50;99.90;;;;;;5009997;28;20345;-65
2022/12/27 12:24:26;;;;;;;11.07;9.18;;;13.40;99.90;;;;;;4955741;28;20035;-62
2022/12/27 12:27:16;;;;;;;9.18;8.18;;;13.40;99.90;;;;;;4989900;28;20050;-62
2022/12/27 12:30:22;;;;;;;8.52;7.63;;;13.50;99.90;;;;;;4993664;28;20065;-67
2022/12/27 12:32:51;;;;;;;7.60;6.80;;;13.50;99.90;;;;;;4967800;28;20428;-62
2022/12/27 12:35:42;;;;;;;7.03;6.32;;;13.50;99.90;;;;;;4999736;28;20041;-67
2022/12/27 12:38:11;;;;;;;6.63;5.78;;;13.50;99.90;;;;;;4999798;28;20049;-66
2022/12/27 12:40:50;;;;;;;6.78;5.93;;;13.40;99.90;;;;;;5010921;28;20108;-63
2022/12/27 12:43:28;;;;;;;6.22;5.63;;;13.40;99.90;;;;;;5002270;28;20034;-64
2022/12/27 12:46:19;;;;;;;8.32;7.00;;;13.40;99.90;;;;;;5032655;28;20138;-62
2022/12/27 12:48:53;;;;;;;6.63;5.63;;;13.40;99.90;;;;;;5002092;28;20025;-61
2022/12/27 12:51:37;;;;;;;6.22;5.05;;;13.40;99.90;;;;;;5002214;28;20058;-64
2022/12/27 12:54:31;;;;;;;5.10;4.53;;;13.40;99.90;;;;;;5001916;28;20041;-63
2022/12/27 12:57:25;;;;;;;4.85;4.35;;;13.40;99.90;;;;;;5001173;28;20026;-66
2022/12/27 13:00:15;;;;;;;5.60;4.10;;;13.40;99.90;;;;;;4998422;28;20501;-64
2022/12/27 13:02:56;;;;;;;7.50;6.53;;;13.40;99.90;;;;;;4998924;28;20037;-65
2022/12/27 13:05:36;;;;;;;6.93;5.93;;;13.30;99.90;;;;;;5004452;28;20030;-64
2022/12/27 13:08:39;;;;;;;9.55;6.93;;;13.30;99.90;;;;;;4992154;28;20033;-66
2022/12/27 13:11:24;;;;;;;7.15;6.20;;;13.30;99.90;;;;;;4999540;28;20128;-60
2022/12/27 13:14:09;;;;;;;11.20;9.63;;;13.30;99.90;;;;;;5032730;28;20030;-62
2022/12/27 13:17:05;;;;;;;12.05;10.77;;;13.40;99.90;;;;;;4990967;28;20030;-65
2022/12/27 13:19:59;;;;;;;17.60;15.40;;;13.30;99.90;;;;;;4993315;28;20664;-61
2022/12/27 13:22:59;;;;;;;26.43;23.57;;;13.20;99.90;;;;;;5002655;28;20037;-61
2022/12/27 13:25:40;;;;;;;45.88;36.58;;;13.20;99.90;;;;;;5011281;28;20117;-66
2022/12/27 13:28:21;;;;;;;45.08;37.53;;;13.10;99.90;;;;;;5011123;28;20105;-63
2022/12/27 13:31:04;;;;;;;49.92;40.75;;;13.00;99.90;;;;;;5011041;28;20026;-66
2022/12/27 13:33:36;;;;;;;;;;;13.10;99.90;;;;;;4999287;28;20038;-64
2022/12/27 13:36:08;;;;;;;34.53;28.50;;;13.10;99.90;;;;;;4993981;28;19910;-65
2022/12/27 13:39:12;;;;;;;29.58;26.08;;;13.10;99.90;;;;;;4997029;28;20054;-61
2022/12/27 13:41:52;;;;;;;31.63;26.20;;;13.20;99.90;;;;;;5006590;28;20163;-63
2022/12/27 13:44:29;;;;;;;23.77;21.25;;;13.30;99.90;;;;;;5001368;28;20117;-61
2022/12/27 13:47:29;;;;;;;24.05;21.48;;;13.40;99.90;;;;;;5002309;28;20030;-62
2022/12/27 13:49:57;;;;;;;26.63;21.33;;;13.30;99.90;;;;;;4993826;28;20022;-64
2022/12/27 13:52:35;;;;;;;25.92;21.60;;;13.20;99.90;;;;;;4993758;28;20033;-65
2022/12/27 13:55:21;;;;;;;21.58;18.95;;;13.10;99.90;;;;;;4992571;28;20092;-62
2022/12/27 13:58:28;;;;;;;22.38;18.67;;;13.10;99.90;;;;;;4991650;28;20101;-62
2022/12/27 14:00:59;;;;;;;21.83;18.40;;;13.10;99.90;;;;;;4970580;28;20475;-64
2022/12/27 14:04:03;;;;;;;19.60;15.95;;;13.10;99.90;;;;;;4989566;28;20034;-63
2022/12/27 14:06:32;;;;;;;16.38;14.10;;;13.10;99.90;;;;;;4997243;28;20018;-67
2022/12/27 14:09:13;;;;;;;16.42;13.63;;;13.20;99.90;;;;;;4996457;28;20029;-61
2022/12/27 14:12:07;;;;;;;13.63;12.23;;;13.20;99.90;;;;;;4996519;28;20515;-66
2022/12/27 14:14:37;;;;;;;13.43;11.57;;;13.20;99.90;;;;;;4995917;28;20027;-63
2022/12/27 14:17:27;;;;;;;13.40;11.98;;;13.20;99.90;;;;;;4997114;28;20388;-62
2022/12/27 14:20:05;;;;;;;13.80;12.05;;;13.20;99.90;;;;;;4997051;28;20073;-62
2022/12/27 14:22:43;;;;;;;12.27;10.95;;;13.10;99.90;;;;;;4997088;28;20022;-66
2022/12/27 14:25:24;;;;;;;11.35;9.88;;;13.10;99.90;;;;;;4996796;28;20481;-62
2022/12/27 14:28:13;;;;;;;11.10;9.90;;;13.10;99.90;;;;;;4996608;28;20105;-62
2022/12/27 14:30:53;;;;;;;10.20;9.10;;;13.10;99.90;;;;;;4993442;28;20440;-66
2022/12/27 14:33:57;;;;;;;8.50;6.35;;;13.00;99.90;;;;;;4997407;28;20023;-68
2022/12/27 14:36:56;;;;;;;6.47;5.72;;;12.90;99.90;;;;;;4997393;28;20496;-65
2022/12/27 14:39:59;;;;;;;6.30;5.47;;;12.80;99.90;;;;;;4997012;28;20036;-64
2022/12/27 14:42:52;;;;;;;4.82;4.32;;;12.70;99.90;;;;;;4997164;28;20026;-66
2022/12/27 14:45:43;;;;;;;5.00;4.15;;;12.70;99.90;;;;;;4997162;28;20033;-66
2022/12/27 14:48:33;;;;;;;3.95;3.22;;;12.60;99.90;;;;;;4997110;28;20388;-64
2022/12/27 14:51:23;;;;;;;3.22;2.95;;;12.60;99.90;;;;;;4996937;28;20027;-63
2022/12/27 14:53:55;;;;;;;3.08;2.38;;;12.40;99.90;;;;;;4996845;28;20052;-67